createdAt,value
2019-04-14T00:00:11.917Z,10.40
2019-04-14T00:02:51.194Z,10.40
2019-04-14T00:05:23.275Z,10.50
2019-04-14T00:07:53.833Z,10.50
2019-04-14T00:10:25.233Z,10.50
2019-04-14T00:12:55.640Z,10.40
2019-04-14T00:15:33.266Z,10.40
2019-04-14T00:17:58.945Z,10.50
2019-04-14T00:20:29.383Z,10.40
2019-04-14T00:22:59.769Z,10.40
2019-04-14T00:25:30.513Z,10.40
2019-04-14T00:28:02.938Z,10.30
2019-04-14T00:30:33.765Z,10.30
2019-04-14T00:33:06.266Z,10.30
2019-04-14T00:35:44.860Z,10.30
2019-04-14T00:38:28.092Z,10.30
2019-04-14T00:41:00.698Z,10.30
2019-04-14T00:43:41.721Z,10.20
2019-04-14T00:46:23.283Z,10.30
2019-04-14T00:48:54.540Z,10.30
2019-04-14T00:51:24.649Z,10.30
2019-04-14T00:53:55.667Z,10.20
2019-04-14T00:56:25.994Z,10.10
2019-04-14T00:58:56.159Z,10.10
2019-04-14T01:01:26.523Z,10.10
2019-04-14T01:03:56.983Z,10.20
2019-04-14T01:06:27.335Z,10.20
2019-04-14T01:08:57.569Z,10.20
2019-04-14T01:11:29.115Z,10.10
2019-04-14T01:13:59.430Z,10.10
2019-04-14T01:16:29.788Z,10.00
2019-04-14T01:19:00.443Z,10.00
2019-04-14T01:21:32.718Z,10.00
2019-04-14T01:24:03.192Z,10.10
2019-04-14T01:26:33.488Z,10.30
2019-04-14T01:29:03.707Z,10.30
2019-04-14T01:31:33.922Z,10.20
2019-04-14T01:34:04.151Z,10.20
2019-04-14T01:36:34.498Z,10.10
2019-04-14T01:39:06.953Z,10.10
2019-04-14T01:41:37.460Z,10.00
2019-04-14T01:44:07.439Z,10.00
2019-04-14T01:46:37.510Z,10.00
2019-04-14T01:49:07.490Z,10.10
2019-04-14T01:51:46.346Z,10.20
2019-04-14T01:54:19.026Z,10.30
2019-04-14T01:57:00.864Z,10.30
2019-04-14T01:59:30.851Z,10.30
2019-04-14T02:02:01.604Z,10.30
2019-04-14T02:04:31.695Z,10.30
2019-04-14T02:07:03.829Z,10.30
2019-04-14T02:09:33.987Z,10.20
2019-04-14T02:12:06.235Z,10.20
2019-04-14T02:14:36.526Z,10.20
2019-04-14T02:17:07.839Z,10.20
2019-04-14T02:19:39.288Z,10.20
2019-04-14T02:22:09.626Z,10.10
2019-04-14T02:24:39.623Z,10.00
2019-04-14T02:27:23.142Z,10.00
2019-04-14T02:29:53.837Z,10.00
2019-04-14T02:32:52.568Z,10.00
2019-04-14T02:35:40.726Z,9.90
2019-04-14T02:38:02.007Z,10.00
2019-04-14T02:40:27.376Z,9.90
2019-04-14T02:42:54.180Z,9.90
2019-04-14T02:45:35.088Z,9.90
2019-04-14T02:50:30.317Z,9.90
2019-04-14T02:53:09.047Z,9.90
2019-04-14T02:55:42.496Z,9.90
2019-04-14T02:58:09.975Z,9.90
2019-04-14T03:03:23.421Z,9.90
2019-04-14T03:05:53.372Z,9.90
2019-04-14T03:15:56.804Z,10.10
2019-04-14T03:21:19.988Z,10.20
2019-04-14T03:23:56.367Z,10.30
2019-04-14T03:26:45.067Z,10.30
2019-04-14T03:29:19.215Z,10.30
2019-04-14T03:37:31.106Z,10.10
2019-04-14T03:39:27.372Z,10.10
2019-04-14T03:41:53.100Z,10.20
2019-04-14T03:44:32.991Z,10.20
2019-04-14T03:47:08.689Z,10.20
2019-04-14T03:49:31.760Z,10.20
2019-04-14T03:52:03.705Z,10.20
2019-04-14T03:54:27.353Z,10.30
2019-04-14T03:56:48.964Z,10.30
2019-04-14T03:59:21.668Z,10.30
2019-04-14T04:01:52.402Z,10.10
2019-04-14T04:04:22.800Z,10.00
2019-04-14T04:06:53.197Z,10.00
2019-04-14T04:09:25.713Z,9.90
2019-04-14T04:11:56.336Z,9.80
2019-04-14T04:14:27.623Z,9.80
2019-04-14T04:17:01.465Z,9.70
2019-04-14T04:19:38.923Z,9.80
2019-04-14T04:22:17.194Z,9.70
2019-04-14T04:24:52.189Z,9.70
2019-04-14T04:27:41.909Z,9.60
2019-04-14T04:30:14.424Z,9.70
2019-04-14T04:32:52.146Z,9.60
2019-04-14T04:35:32.775Z,9.60
2019-04-14T04:38:08.139Z,9.50
2019-04-14T04:40:39.631Z,9.60
2019-04-14T04:43:10.173Z,9.60
2019-04-14T04:45:40.893Z,9.50
2019-04-14T04:48:11.036Z,9.60
2019-04-14T04:50:45.245Z,9.60
2019-04-14T04:53:15.839Z,9.50
2019-04-14T04:55:46.156Z,9.50
2019-04-14T04:58:19.423Z,9.50
2019-04-14T05:00:52.554Z,9.50
2019-04-14T05:03:21.368Z,9.50
2019-04-14T05:06:11.324Z,9.50
2019-04-14T05:08:55.408Z,9.50
2019-04-14T05:11:27.369Z,9.50
2019-04-14T05:14:00.015Z,9.50
2019-04-14T05:16:30.281Z,9.50
2019-04-14T05:19:12.196Z,9.50
2019-04-14T05:21:32.168Z,9.50
2019-04-14T05:24:02.836Z,9.50
2019-04-14T05:26:33.156Z,9.50
2019-04-14T05:29:03.595Z,9.50
2019-04-14T05:31:33.832Z,9.50
2019-04-14T05:34:04.407Z,9.50
2019-04-14T05:36:36.736Z,9.50
2019-04-14T05:39:07.200Z,9.50
2019-04-14T05:41:37.618Z,9.50
2019-04-14T05:44:09.910Z,9.40
2019-04-14T05:46:43.111Z,9.50
2019-04-14T05:49:26.276Z,9.60
2019-04-14T05:51:57.019Z,9.50
2019-04-14T05:54:27.486Z,9.50
2019-04-14T05:56:58.001Z,9.50
2019-04-14T05:59:28.604Z,9.50
2019-04-14T06:01:59.431Z,9.50
2019-04-14T06:04:30.934Z,9.60
2019-04-14T06:07:02.330Z,9.50
2019-04-14T06:09:32.436Z,9.50
2019-04-14T06:12:02.612Z,9.50
2019-04-14T06:14:32.653Z,9.50
2019-04-14T06:17:03.798Z,9.50
2019-04-14T06:19:39.040Z,9.60
2019-04-14T06:22:05.698Z,9.50
2019-04-14T06:24:35.686Z,9.50
2019-04-14T06:27:05.751Z,9.50
2019-04-14T06:29:35.728Z,9.50
2019-04-14T06:32:07.601Z,9.50
2019-04-14T06:34:51.154Z,9.50
2019-04-14T06:37:22.801Z,9.60
2019-04-14T06:40:00.404Z,9.60
2019-04-14T06:42:30.724Z,9.60
2019-04-14T06:45:00.867Z,9.60
2019-04-14T06:47:30.947Z,9.60
2019-04-14T06:50:00.915Z,9.60
2019-04-14T06:52:32.195Z,9.60
2019-04-14T06:55:02.145Z,9.60
2019-04-14T06:57:33.482Z,9.60
2019-04-14T07:00:03.854Z,9.60
2019-04-14T07:02:35.234Z,9.60
2019-04-14T07:05:06.612Z,9.60
2019-04-14T07:07:37.825Z,9.60
2019-04-14T07:10:09.143Z,9.60
2019-04-14T07:12:39.433Z,9.60
2019-04-14T07:15:09.521Z,9.70
2019-04-14T07:17:41.794Z,9.70
2019-04-14T07:20:12.253Z,9.80
2019-04-14T07:22:54.906Z,9.80
2019-04-14T07:25:24.953Z,9.90
2019-04-14T07:27:55.118Z,9.90
2019-04-14T07:30:42.954Z,9.90
2019-04-14T07:33:14.711Z,9.90
2019-04-14T07:35:46.332Z,9.90
2019-04-14T07:38:21.779Z,9.90
2019-04-14T07:41:05.727Z,9.90
2019-04-14T07:43:46.235Z,10.00
2019-04-14T07:46:23.700Z,10.00
2019-04-14T07:49:12.090Z,10.10
2019-04-14T07:51:55.826Z,10.20
2019-04-14T07:54:43.464Z,10.20
2019-04-14T07:57:33.515Z,10.20
2019-04-14T08:00:06.767Z,10.20
2019-04-14T08:02:41.629Z,10.20
2019-04-14T08:05:13.472Z,10.20
2019-04-14T08:07:44.695Z,10.20
2019-04-14T08:10:14.932Z,10.30
2019-04-14T08:12:44.901Z,10.20
2019-04-14T08:15:15.430Z,10.30
2019-04-14T08:17:46.494Z,10.30
2019-04-14T08:20:26.838Z,10.30
2019-04-14T08:22:48.587Z,10.30
2019-04-14T08:25:18.703Z,10.20
2019-04-14T08:27:48.772Z,10.20
2019-04-14T08:30:19.183Z,10.20
2019-04-14T08:32:49.344Z,10.20
2019-04-14T08:35:19.611Z,10.10
2019-04-14T08:37:50.878Z,10.10
2019-04-14T08:40:20.969Z,10.10
2019-04-14T08:42:58.721Z,10.10
2019-04-14T08:45:45.990Z,10.00
2019-04-14T08:48:24.683Z,10.10
2019-04-14T08:50:59.659Z,9.90
2019-04-14T08:53:31.311Z,9.90
2019-04-14T08:56:09.262Z,10.00
2019-04-14T08:58:50.698Z,10.00
2019-04-14T09:01:28.063Z,9.90
2019-04-14T09:03:59.784Z,9.80
2019-04-14T09:06:31.443Z,9.80
2019-04-14T09:09:09.058Z,9.80
2019-04-14T09:11:52.860Z,9.80
2019-04-14T09:14:22.842Z,9.90
2019-04-14T09:16:54.207Z,9.80
2019-04-14T09:19:24.516Z,9.80
2019-04-14T09:21:54.736Z,9.80
2019-04-14T09:24:24.967Z,9.80
2019-04-14T09:26:56.295Z,9.80
2019-04-14T09:29:27.143Z,9.80
2019-04-14T09:31:57.351Z,9.80
2019-04-14T09:34:27.494Z,9.90
2019-04-14T09:36:58.740Z,9.80
2019-04-14T09:39:28.819Z,9.70
2019-04-14T09:41:58.961Z,9.80
2019-04-14T09:44:29.159Z,9.80
2019-04-14T09:46:59.448Z,9.80
2019-04-14T09:49:29.637Z,9.70
2019-04-14T09:51:59.720Z,9.80
2019-04-14T09:54:29.669Z,9.70
2019-04-14T09:57:00.891Z,9.70
2019-04-14T09:59:30.893Z,9.80
2019-04-14T10:02:01.250Z,9.80
2019-04-14T10:04:31.447Z,9.90
2019-04-14T10:07:02.743Z,10.00
2019-04-14T10:09:32.924Z,10.00
2019-04-14T10:12:03.106Z,9.90
2019-04-14T10:14:33.260Z,9.90
2019-04-14T10:17:04.451Z,9.70
2019-04-14T10:19:35.432Z,9.70
2019-04-14T10:22:05.604Z,9.70
2019-04-14T10:24:35.597Z,9.80
2019-04-14T10:27:05.758Z,9.80
2019-04-14T10:29:35.719Z,9.80
2019-04-14T10:32:06.101Z,9.80
2019-04-14T10:34:36.193Z,9.80
2019-04-14T10:37:06.382Z,9.90
2019-04-14T10:39:36.540Z,9.80
2019-04-14T10:42:06.835Z,9.70
2019-04-14T10:44:36.893Z,9.60
2019-04-14T10:47:07.053Z,9.50
2019-04-14T10:49:37.116Z,9.50
2019-04-14T10:52:07.314Z,9.50
2019-04-14T10:54:38.688Z,9.60
2019-04-14T10:57:10.794Z,9.60
2019-04-14T10:59:51.614Z,9.60
2019-04-14T11:02:23.360Z,9.60
2019-04-14T11:04:56.313Z,9.60
2019-04-14T11:07:30.713Z,9.60
2019-04-14T11:10:00.999Z,9.60
2019-04-14T11:12:34.562Z,9.70
2019-04-14T11:15:07.070Z,9.60
2019-04-14T11:17:39.821Z,9.60
2019-04-14T11:20:11.123Z,9.70
2019-04-14T11:22:41.317Z,9.60
2019-04-14T11:25:11.486Z,9.50
2019-04-14T11:27:41.610Z,9.50
2019-04-14T11:30:13.326Z,9.50
2019-04-14T11:32:47.803Z,9.50
2019-04-14T11:35:22.198Z,9.50
2019-04-14T11:38:10.186Z,9.50
2019-04-14T11:40:41.732Z,9.50
2019-04-14T11:43:11.930Z,9.50
2019-04-14T11:45:41.892Z,9.60
2019-04-14T11:48:12.154Z,9.70
2019-04-14T11:50:42.352Z,9.60
2019-04-14T11:53:12.627Z,9.60
2019-04-14T11:55:42.750Z,9.60
2019-04-14T11:58:13.035Z,9.70
2019-04-14T12:00:54.059Z,9.80
2019-04-14T12:03:38.965Z,9.80
2019-04-14T12:06:19.470Z,9.90
2019-04-14T12:08:51.222Z,10.00
2019-04-14T12:11:21.409Z,10.00
2019-04-14T12:13:51.497Z,9.90
2019-04-14T12:16:21.556Z,10.00
2019-04-14T12:18:51.712Z,10.10
2019-04-14T12:21:22.684Z,10.10
2019-04-14T12:23:53.052Z,10.10
2019-04-14T12:26:23.042Z,10.10
2019-04-14T12:28:53.697Z,10.00
2019-04-14T12:31:24.400Z,10.00
2019-04-14T12:33:54.606Z,10.10
2019-04-14T12:36:24.756Z,10.10
2019-04-14T12:38:55.054Z,10.20
2019-04-14T12:41:31.049Z,10.10
2019-04-14T12:44:09.007Z,10.10
2019-04-14T12:46:46.561Z,10.20
2019-04-14T12:49:25.255Z,10.20
2019-04-14T12:52:21.394Z,10.10
2019-04-14T12:54:48.489Z,10.00
2019-04-14T12:57:21.186Z,10.10
2019-04-14T12:59:51.669Z,10.10
2019-04-14T13:02:23.432Z,10.20
2019-04-14T13:04:55.348Z,10.20
2019-04-14T13:07:44.778Z,10.20
2019-04-14T13:10:15.370Z,10.20
2019-04-14T13:12:45.467Z,10.20
2019-04-14T13:15:27.442Z,10.10
2019-04-14T13:17:57.476Z,10.20
2019-04-14T13:20:27.744Z,10.20
2019-04-14T13:22:58.923Z,10.30
2019-04-14T13:25:29.109Z,10.30
2019-04-14T13:27:59.087Z,10.40
2019-04-14T13:30:30.926Z,10.60
2019-04-14T13:33:00.953Z,10.70
2019-04-14T13:35:50.429Z,10.80
2019-04-14T13:38:20.546Z,10.80
2019-04-14T13:40:50.991Z,10.80
2019-04-14T13:43:21.085Z,10.80
2019-04-14T13:45:51.367Z,10.80
2019-04-14T13:48:33.895Z,10.70
2019-04-14T13:51:16.395Z,10.70
2019-04-14T13:54:05.820Z,10.70
2019-04-14T13:56:37.673Z,10.80
2019-04-14T13:59:07.683Z,10.80
2019-04-14T14:01:37.979Z,10.80
2019-04-14T14:04:08.046Z,10.80
2019-04-14T14:06:38.442Z,10.80
2019-04-14T14:09:10.783Z,10.90
2019-04-14T14:11:45.002Z,11.00
2019-04-14T14:14:19.717Z,11.00
2019-04-14T14:16:59.653Z,11.10
2019-04-14T14:19:43.280Z,11.20
2019-04-14T14:22:15.201Z,11.10
2019-04-14T14:24:56.171Z,11.10
2019-04-14T14:27:26.294Z,11.20
2019-04-14T14:29:56.375Z,11.20
2019-04-14T14:32:30.975Z,11.10
2019-04-14T14:35:00.938Z,11.10
2019-04-14T14:37:31.119Z,11.20
2019-04-14T14:40:01.084Z,11.20
2019-04-14T14:42:32.421Z,11.20
2019-04-14T14:45:17.542Z,11.20
2019-04-14T14:47:54.004Z,11.20
2019-04-14T14:50:25.763Z,11.30
2019-04-14T14:52:55.975Z,11.20
2019-04-14T14:55:25.959Z,11.20
2019-04-14T14:57:56.691Z,11.20
2019-04-14T15:00:31.268Z,11.20
2019-04-14T15:03:01.327Z,11.10
2019-04-14T15:05:31.313Z,11.10
2019-04-14T15:08:01.417Z,11.00
2019-04-14T15:10:31.499Z,11.10
2019-04-14T15:13:02.765Z,11.10
2019-04-14T15:15:32.832Z,11.10
2019-04-14T15:18:03.017Z,11.10
2019-04-14T15:20:33.208Z,11.00
2019-04-14T15:23:03.454Z,11.00
2019-04-14T15:25:34.577Z,11.00
2019-04-14T15:28:06.427Z,11.00
2019-04-14T15:30:37.815Z,11.00
2019-04-14T15:33:08.559Z,10.90
2019-04-14T15:35:38.666Z,10.90
2019-04-14T15:38:08.855Z,10.90
2019-04-14T15:40:38.907Z,10.90
2019-04-14T15:43:08.995Z,10.90
2019-04-14T15:45:38.948Z,10.90
2019-04-14T15:48:09.040Z,10.90
2019-04-14T15:50:39.228Z,10.90
2019-04-14T15:53:09.553Z,10.90
2019-04-14T15:55:39.516Z,10.90
2019-04-14T15:58:12.848Z,10.90
2019-04-14T16:00:44.965Z,10.90
2019-04-14T16:03:22.676Z,10.90
2019-04-14T16:05:54.325Z,10.80
2019-04-14T16:08:42.461Z,10.80
2019-04-14T16:11:13.995Z,10.80
2019-04-14T16:13:45.675Z,10.70
2019-04-14T16:16:17.403Z,10.80
2019-04-14T16:18:49.222Z,10.80
2019-04-14T16:21:19.330Z,10.80
2019-04-14T16:23:50.890Z,10.80
2019-04-14T16:26:23.908Z,10.80
2019-04-14T16:29:02.671Z,10.80
2019-04-14T16:31:52.978Z,10.90
2019-04-14T16:34:27.636Z,10.90
2019-04-14T16:37:03.775Z,10.70
2019-04-14T16:39:33.999Z,10.80
2019-04-14T16:42:04.140Z,10.80
2019-04-14T16:44:34.427Z,10.80
2019-04-14T16:47:05.586Z,10.70
2019-04-14T16:49:35.762Z,10.80
2019-04-14T16:52:10.680Z,10.70
2019-04-14T16:54:51.223Z,10.80
2019-04-14T16:57:31.891Z,10.70
2019-04-14T17:00:01.962Z,10.70
2019-04-14T17:02:33.226Z,10.70
2019-04-14T17:05:03.382Z,10.70
2019-04-14T17:07:34.377Z,10.70
2019-04-14T17:10:05.151Z,10.70
2019-04-14T17:12:35.827Z,10.70
2019-04-14T17:15:25.445Z,10.70
2019-04-14T17:18:10.121Z,10.60
2019-04-14T17:20:44.698Z,10.70
2019-04-14T17:23:16.216Z,10.60
2019-04-14T17:25:47.865Z,10.60
2019-04-14T17:28:39.250Z,10.50
2019-04-14T17:31:17.206Z,10.50
2019-04-14T17:33:48.863Z,10.50
2019-04-14T17:36:29.976Z,10.50
2019-04-14T17:39:01.630Z,10.50
2019-04-14T17:41:41.083Z,10.50
2019-04-14T17:44:25.017Z,10.50
2019-04-14T17:47:13.415Z,10.50
2019-04-14T17:49:44.945Z,10.50
2019-04-14T17:52:19.377Z,10.50
2019-04-14T17:54:56.832Z,10.50
2019-04-14T17:57:34.743Z,10.50
2019-04-14T18:00:17.494Z,10.50
2019-04-14T18:02:58.523Z,10.50
2019-04-14T18:05:36.299Z,10.40
2019-04-14T18:08:17.186Z,10.40
2019-04-14T18:11:07.359Z,10.40
2019-04-14T18:13:42.181Z,10.40
2019-04-14T18:16:19.679Z,10.40
2019-04-14T18:19:01.289Z,10.40
2019-04-14T18:21:31.274Z,10.40
2019-04-14T18:24:01.348Z,10.40
2019-04-14T18:26:31.779Z,10.30
2019-04-14T18:29:20.677Z,10.30
2019-04-14T18:31:52.354Z,10.30
2019-04-14T18:34:25.575Z,10.30
2019-04-14T18:36:57.759Z,10.30
2019-04-14T18:39:45.983Z,10.30
2019-04-14T18:42:20.477Z,10.30
2019-04-14T18:44:53.308Z,10.30
2019-04-14T18:47:35.351Z,10.30
2019-04-14T18:50:11.210Z,10.30
2019-04-14T18:52:43.373Z,10.20
2019-04-14T18:55:17.962Z,10.20
2019-04-14T18:57:49.890Z,10.20
2019-04-14T19:00:21.558Z,10.20
2019-04-14T19:02:52.282Z,10.20
2019-04-14T19:05:23.004Z,10.20
2019-04-14T19:07:53.281Z,10.20
2019-04-14T19:10:24.392Z,10.20
2019-04-14T19:12:59.301Z,10.20
2019-04-14T19:15:43.932Z,10.20
2019-04-14T19:18:29.952Z,10.20
2019-04-14T19:21:05.704Z,10.20
2019-04-14T19:23:36.225Z,10.20
2019-04-14T19:26:06.429Z,10.20
2019-04-14T19:28:36.802Z,10.20
2019-04-14T19:31:07.207Z,10.20
2019-04-14T19:33:37.396Z,10.20
2019-04-14T19:36:07.733Z,10.20
2019-04-14T19:38:38.947Z,10.30
2019-04-14T19:41:25.707Z,10.30
2019-04-14T19:44:00.666Z,10.30
2019-04-14T19:46:40.667Z,10.30
2019-04-14T19:49:19.202Z,10.30
2019-04-14T19:51:52.721Z,10.30
2019-04-14T19:54:27.843Z,10.20
2019-04-14T19:56:58.143Z,10.20
2019-04-14T19:59:29.314Z,10.20
2019-04-14T20:01:59.622Z,10.20
2019-04-14T20:04:30.093Z,10.10
2019-04-14T20:07:20.656Z,10.10
2019-04-14T20:09:50.900Z,10.10
2019-04-14T20:12:21.304Z,10.10
2019-04-14T20:14:51.593Z,10.10
2019-04-14T20:17:23.473Z,10.10
2019-04-14T20:20:11.477Z,10.10
2019-04-14T20:22:52.235Z,10.10
2019-04-14T20:25:33.727Z,10.10
2019-04-14T20:28:09.118Z,10.10
2019-04-14T20:30:41.059Z,10.20
2019-04-14T20:33:13.939Z,10.20
2019-04-14T20:35:44.119Z,10.20
2019-04-14T20:38:14.308Z,10.20
2019-04-14T20:40:44.621Z,10.20
2019-04-14T20:43:14.901Z,10.20
2019-04-14T20:45:45.264Z,10.20
2019-04-14T20:48:15.447Z,10.20
2019-04-14T20:50:45.640Z,10.20
2019-04-14T20:53:15.823Z,10.20
2019-04-14T20:55:47.248Z,10.20
2019-04-14T20:58:17.698Z,10.20
2019-04-14T21:00:47.945Z,10.20
2019-04-14T21:03:19.588Z,10.20
2019-04-14T21:05:53.722Z,10.20
2019-04-14T21:08:25.267Z,10.20
2019-04-14T21:10:56.935Z,10.10
2019-04-14T21:13:28.465Z,10.10
2019-04-14T21:16:12.559Z,10.20
2019-04-14T21:18:45.105Z,10.20
2019-04-14T21:21:29.301Z,10.10
2019-04-14T21:24:00.981Z,10.10
2019-04-14T21:26:38.806Z,10.10
2019-04-14T21:29:10.432Z,10.20
2019-04-14T21:31:51.180Z,10.20
2019-04-14T21:34:22.733Z,10.10
2019-04-14T21:36:55.616Z,10.10
2019-04-14T21:39:40.586Z,10.20
2019-04-14T21:42:11.011Z,10.10
2019-04-14T21:44:41.195Z,10.20
2019-04-14T21:47:14.750Z,10.20
2019-04-14T21:49:44.739Z,10.20
2019-04-14T21:52:20.722Z,10.20
2019-04-14T21:54:50.784Z,10.20
2019-04-14T21:57:34.533Z,10.20
2019-04-14T22:00:27.004Z,10.20
2019-04-14T22:03:18.065Z,10.20
2019-04-14T22:05:49.742Z,10.20
2019-04-14T22:08:21.478Z,10.10
2019-04-14T22:10:56.071Z,10.10
2019-04-14T22:13:26.168Z,10.10
2019-04-14T22:15:57.393Z,10.10
2019-04-14T22:18:27.531Z,10.10
2019-04-14T22:20:57.618Z,10.10
2019-04-14T22:23:27.802Z,10.00
2019-04-14T22:25:57.769Z,10.10
2019-04-14T22:28:27.847Z,10.10
2019-04-14T22:30:57.999Z,10.00
2019-04-14T22:33:28.186Z,10.00
2019-04-14T22:35:58.245Z,10.00
2019-04-14T22:38:28.480Z,10.00
2019-04-14T22:40:58.681Z,10.10
2019-04-14T22:43:28.949Z,10.00
2019-04-14T22:45:58.936Z,10.10
2019-04-14T22:48:29.100Z,10.10
2019-04-14T22:50:59.164Z,10.10
2019-04-14T22:53:29.346Z,10.00
2019-04-14T22:55:59.331Z,10.00
2019-04-14T22:58:29.516Z,10.00
2019-04-14T23:01:02.482Z,10.00
2019-04-14T23:03:34.780Z,10.00
2019-04-14T23:09:11.822Z,10.00
2019-04-14T23:11:59.898Z,10.10
2019-04-14T23:14:34.657Z,10.00
2019-04-14T23:17:22.835Z,10.10
2019-04-14T23:20:00.633Z,10.00
2019-04-14T23:22:33.380Z,10.00
2019-04-14T23:25:03.647Z,10.00
2019-04-14T23:27:37.653Z,10.00
2019-04-14T23:30:08.367Z,10.00
2019-04-14T23:32:38.356Z,9.90
2019-04-14T23:35:09.700Z,9.90
2019-04-14T23:37:43.224Z,9.90
2019-04-14T23:40:13.599Z,9.90
2019-04-14T23:42:43.547Z,9.90
2019-04-14T23:45:13.982Z,10.00
2019-04-14T23:47:46.148Z,10.00
2019-04-14T23:50:16.539Z,10.00
2019-04-14T23:52:46.533Z,10.00
2019-04-14T23:55:16.644Z,10.00
2019-04-14T23:57:49.858Z,10.00
